createdAt,value
2022-12-26T00:01:13.184Z,100426.63
2022-12-26T00:03:41.377Z,100430.53
2022-12-26T00:06:15.511Z,100426.56
2022-12-26T00:08:44.947Z,100413.66
2022-12-26T00:11:13.500Z,100423.88
2022-12-26T00:13:42.156Z,100428.00
2022-12-26T00:16:11.244Z,100412.16
2022-12-26T00:18:39.832Z,100420.47
2022-12-26T00:21:08.351Z,100421.06
2022-12-26T00:23:38.813Z,100423.50
2022-12-26T00:26:09.102Z,100418.97
2022-12-26T00:28:37.783Z,100398.53
2022-12-26T00:31:06.648Z,100392.22
2022-12-26T00:33:35.304Z,100392.44
2022-12-26T00:36:04.142Z,100391.84
2022-12-26T00:38:32.236Z,100409.16
2022-12-26T00:41:01.574Z,100410.38
2022-12-26T00:43:29.670Z,100403.59
2022-12-26T00:45:58.871Z,100392.22
2022-12-26T00:48:27.491Z,100399.66
2022-12-26T00:50:55.865Z,100397.91
2022-12-26T00:53:24.545Z,100381.09
2022-12-26T00:55:52.783Z,100374.38
2022-12-26T00:58:22.639Z,100387.50
2022-12-26T01:00:51.025Z,100383.94
2022-12-26T01:03:19.449Z,100384.28
2022-12-26T01:05:49.423Z,100365.34
2022-12-26T01:08:22.443Z,100362.47
2022-12-26T01:10:52.540Z,100362.00
2022-12-26T01:13:22.353Z,100357.00
2022-12-26T01:15:51.539Z,100368.16
2022-12-26T01:18:20.015Z,100365.91
2022-12-26T01:20:48.357Z,100353.78
2022-12-26T01:23:17.171Z,100352.09
2022-12-26T01:26:18.900Z,100347.00
2022-12-26T01:28:34.426Z,100351.16
2022-12-26T01:31:03.717Z,100357.75
2022-12-26T01:33:31.929Z,100356.06
2022-12-26T01:36:00.452Z,100360.13
2022-12-26T01:38:28.393Z,100360.13
2022-12-26T01:41:10.630Z,100358.94
2022-12-26T01:43:55.695Z,100341.03
2022-12-26T01:46:28.213Z,100340.53
2022-12-26T01:49:00.642Z,100342.94
2022-12-26T01:51:35.000Z,100335.78
2022-12-26T01:54:39.276Z,100334.94
2022-12-26T01:56:54.258Z,100332.31
2022-12-26T01:59:27.681Z,100324.81
2022-12-26T02:01:56.539Z,100323.00
2022-12-26T02:04:47.644Z,100338.06
2022-12-26T02:07:15.695Z,100338.06
2022-12-26T02:09:45.446Z,100330.66
2022-12-26T02:12:35.861Z,100326.63
2022-12-26T02:15:11.705Z,100329.81
2022-12-26T02:17:40.620Z,100340.91
2022-12-26T02:20:18.112Z,100334.00
2022-12-26T02:23:24.863Z,100323.25
2022-12-26T02:26:16.672Z,100332.91
2022-12-26T02:29:18.706Z,100321.38
2022-12-26T02:31:57.298Z,100335.69
2022-12-26T02:34:34.140Z,100319.81
2022-12-26T02:37:26.467Z,100322.09
2022-12-26T02:40:18.550Z,100324.13
2022-12-26T02:42:57.281Z,100320.19
2022-12-26T02:45:52.180Z,100325.09
2022-12-26T02:48:29.953Z,100319.47
2022-12-26T02:51:26.110Z,100307.16
2022-12-26T02:54:20.437Z,100310.88
2022-12-26T02:57:10.291Z,100308.97
2022-12-26T03:00:06.592Z,100322.47
2022-12-26T03:02:57.241Z,100331.91
2022-12-26T03:05:49.775Z,100326.66
2022-12-26T03:08:41.487Z,100324.97
2022-12-26T03:11:27.169Z,100326.28
2022-12-26T03:13:57.362Z,100314.34
2022-12-26T03:16:44.646Z,100329.78
2022-12-26T03:19:15.253Z,100330.25
2022-12-26T03:21:46.727Z,100324.16
2022-12-26T03:24:18.068Z,100325.34
2022-12-26T03:26:50.051Z,100316.16
2022-12-26T03:29:38.627Z,100323.19
2022-12-26T03:32:09.331Z,100333.34
2022-12-26T03:34:41.913Z,100334.03
2022-12-26T03:37:48.680Z,100335.72
2022-12-26T03:40:57.761Z,100332.50
2022-12-26T03:43:52.108Z,100325.59
2022-12-26T03:46:46.906Z,100320.34
2022-12-26T03:49:39.685Z,100319.59
2022-12-26T03:52:31.549Z,100316.63
2022-12-26T03:55:25.177Z,100331.91
2022-12-26T03:58:18.045Z,100329.16
2022-12-26T04:01:07.480Z,100325.31
2022-12-26T04:03:57.035Z,100341.59
2022-12-26T04:06:49.692Z,100319.84
2022-12-26T04:09:40.017Z,100324.75
2022-12-26T04:12:33.302Z,100341.09
2022-12-26T04:15:22.441Z,100367.88
2022-12-26T04:18:13.694Z,100375.88
2022-12-26T04:20:47.805Z,100344.91
2022-12-26T04:23:38.991Z,100346.09
2022-12-26T04:26:29.815Z,100339.31
2022-12-26T04:29:16.975Z,100342.75
2022-12-26T04:32:06.289Z,100344.56
2022-12-26T04:35:01.268Z,100347.41
2022-12-26T04:37:49.193Z,100353.03
2022-12-26T04:40:38.916Z,100345.88
2022-12-26T04:43:50.443Z,100354.81
2022-12-26T04:46:17.145Z,100358.28
2022-12-26T04:49:04.392Z,100354.22
2022-12-26T04:51:32.339Z,100359.84
2022-12-26T04:54:00.285Z,100363.56
2022-12-26T04:56:28.206Z,100349.91
2022-12-26T04:58:56.342Z,100350.63
2022-12-26T05:01:43.298Z,100354.59
2022-12-26T05:04:31.964Z,100359.13
2022-12-26T05:07:17.863Z,100356.25
2022-12-26T05:09:46.465Z,100361.38
2022-12-26T05:12:14.350Z,100364.50
2022-12-26T05:14:42.199Z,100363.56
2022-12-26T05:17:30.045Z,100365.22
2022-12-26T05:20:15.252Z,100366.06
2022-12-26T05:23:03.421Z,100383.63
2022-12-26T05:25:52.279Z,100379.19
2022-12-26T05:28:38.336Z,100376.22
2022-12-26T05:31:06.606Z,100384.56
2022-12-26T05:33:53.562Z,100380.88
2022-12-26T05:36:24.387Z,100383.50
2022-12-26T05:38:52.393Z,100381.34
2022-12-26T05:41:20.378Z,100382.56
2022-12-26T05:43:48.238Z,100382.69
2022-12-26T05:46:16.218Z,100387.78
2022-12-26T05:48:45.679Z,100392.94
2022-12-26T05:51:13.834Z,100388.41
2022-12-26T05:53:41.691Z,100388.50
2022-12-26T05:56:12.600Z,100391.03
2022-12-26T05:58:41.108Z,100395.66
2022-12-26T06:01:11.298Z,100400.69
2022-12-26T06:03:41.436Z,100395.56
2022-12-26T06:06:11.557Z,100395.69
2022-12-26T06:08:39.766Z,100395.06
2022-12-26T06:11:09.126Z,100386.22
2022-12-26T06:13:37.947Z,100386.22
2022-12-26T06:16:07.230Z,100396.88
2022-12-26T06:18:35.774Z,100400.81
2022-12-26T06:21:05.550Z,100399.03
2022-12-26T06:23:35.213Z,100396.97
2022-12-26T06:26:03.471Z,100395.44
2022-12-26T06:28:31.984Z,100390.06
2022-12-26T06:31:03.713Z,100388.53
2022-12-26T06:33:31.827Z,100386.22
2022-12-26T06:36:04.558Z,100384.91
2022-12-26T06:38:33.793Z,100401.28
2022-12-26T06:41:01.729Z,100408.63
2022-12-26T06:43:29.586Z,100417.31
2022-12-26T06:45:58.132Z,100426.41
2022-12-26T06:48:26.083Z,100428.44
2022-12-26T06:50:54.407Z,100425.44
2022-12-26T06:53:22.745Z,100431.31
2022-12-26T06:55:52.552Z,100434.31
2022-12-26T06:58:20.532Z,100442.91
2022-12-26T07:00:48.443Z,100448.41
2022-12-26T07:03:18.061Z,100451.41
2022-12-26T07:05:46.027Z,100461.41
2022-12-26T07:08:14.069Z,100463.22
2022-12-26T07:10:41.924Z,100463.44
2022-12-26T07:13:11.161Z,100458.19
2022-12-26T07:15:39.066Z,100460.94
2022-12-26T07:18:07.041Z,100458.91
2022-12-26T07:20:34.917Z,100454.50
2022-12-26T07:23:02.852Z,100459.88
2022-12-26T07:25:30.775Z,100459.78
2022-12-26T07:28:00.393Z,100461.56
2022-12-26T07:30:29.661Z,100459.88
2022-12-26T07:32:57.564Z,100452.47
2022-12-26T07:35:25.482Z,100456.66
2022-12-26T07:37:53.432Z,100472.66
2022-12-26T07:40:21.332Z,100463.22
2022-12-26T07:42:49.259Z,100462.50
2022-12-26T07:45:18.120Z,100456.91
2022-12-26T07:47:47.446Z,100457.94
2022-12-26T07:50:15.495Z,100458.44
2022-12-26T07:52:43.417Z,100463.84
2022-12-26T07:55:11.330Z,100471.94
2022-12-26T07:57:48.672Z,100478.28
2022-12-26T08:00:18.891Z,100489.38
2022-12-26T08:02:51.049Z,100491.53
2022-12-26T08:05:20.753Z,100495.50
2022-12-26T08:07:49.161Z,100489.03
2022-12-26T08:10:17.315Z,100490.69
2022-12-26T08:12:45.288Z,100492.50
2022-12-26T08:15:13.717Z,100482.81
2022-12-26T08:17:41.679Z,100478.97
2022-12-26T08:20:11.556Z,100479.13
2022-12-26T08:22:39.461Z,100480.78
2022-12-26T08:25:09.519Z,100484.25
2022-12-26T08:27:37.542Z,100479.72
2022-12-26T08:30:06.163Z,100487.13
2022-12-26T08:32:34.122Z,100487.13
2022-12-26T08:35:02.227Z,100490.97
2022-12-26T08:37:31.486Z,100490.59
2022-12-26T08:39:59.358Z,100496.47
2022-12-26T08:42:27.400Z,100491.66
2022-12-26T08:44:55.263Z,100484.63
2022-12-26T08:47:26.475Z,100489.53
2022-12-26T08:49:54.526Z,100483.31
2022-12-26T08:52:22.456Z,100483.19
2022-12-26T08:54:51.719Z,100482.34
2022-12-26T08:57:19.687Z,100495.00
2022-12-26T08:59:47.562Z,100497.88
2022-12-26T09:02:15.549Z,100487.50
2022-12-26T09:04:43.558Z,100493.84
2022-12-26T09:07:11.458Z,100500.53
2022-12-26T09:09:39.841Z,100509.38
2022-12-26T09:12:09.247Z,100517.84
2022-12-26T09:14:37.228Z,100518.81
2022-12-26T09:17:05.397Z,100521.56
2022-12-26T09:19:33.435Z,100527.78
2022-12-26T09:22:18.963Z,100528.00
2022-12-26T09:24:46.839Z,100540.31
2022-12-26T09:27:16.095Z,100547.16
2022-12-26T09:29:43.996Z,100540.44
2022-12-26T09:32:11.910Z,100538.88
2022-12-26T09:34:39.927Z,100530.28
2022-12-26T09:37:07.896Z,100529.22
2022-12-26T09:39:35.930Z,100544.69
2022-12-26T09:42:14.188Z,100529.97
2022-12-26T09:44:59.654Z,100526.94
2022-12-26T09:47:34.407Z,100521.59
2022-12-26T09:50:09.217Z,100527.09
2022-12-26T09:52:41.428Z,100520.06
2022-12-26T09:55:28.520Z,100519.91
2022-12-26T09:58:00.781Z,100522.31
2022-12-26T10:00:34.693Z,100521.63
2022-12-26T10:03:02.957Z,100523.88
2022-12-26T10:05:37.158Z,100527.13
2022-12-26T10:08:22.030Z,100531.88
2022-12-26T10:10:59.379Z,100539.66
2022-12-26T10:13:35.390Z,100543.13
2022-12-26T10:16:10.582Z,100546.09
2022-12-26T10:18:46.489Z,100544.91
2022-12-26T10:21:25.304Z,100548.28
2022-12-26T10:23:59.141Z,100551.88
2022-12-26T10:26:33.629Z,100550.66
2022-12-26T10:29:06.778Z,100567.53
2022-12-26T10:31:42.138Z,100558.81
2022-12-26T10:34:20.040Z,100557.50
2022-12-26T10:36:50.795Z,100557.72
2022-12-26T10:39:24.102Z,100553.75
2022-12-26T10:41:54.407Z,100555.44
2022-12-26T10:44:27.593Z,100533.34
2022-12-26T10:47:18.927Z,100544.44
2022-12-26T10:49:48.533Z,100539.53
2022-12-26T10:52:19.334Z,100544.69
2022-12-26T10:54:52.779Z,100543.72
2022-12-26T10:57:42.260Z,100557.47
2022-12-26T11:00:18.754Z,100556.16
2022-12-26T11:03:04.252Z,100551.50
2022-12-26T11:06:06.291Z,100543.59
2022-12-26T11:08:26.641Z,100549.22
2022-12-26T11:11:05.569Z,100561.06
2022-12-26T11:13:38.750Z,100546.34
2022-12-26T11:16:09.089Z,100554.13
2022-12-26T11:18:41.525Z,100554.72
2022-12-26T11:21:19.033Z,100559.63
2022-12-26T11:23:49.305Z,100546.00
2022-12-26T11:26:23.338Z,100557.13
2022-12-26T11:29:07.361Z,100556.25
2022-12-26T11:31:35.502Z,100544.56
2022-12-26T11:34:09.713Z,100551.22
2022-12-26T11:36:45.107Z,100527.31
2022-12-26T11:39:24.170Z,100518.44
2022-12-26T11:41:52.912Z,100527.91
2022-12-26T11:44:26.074Z,100532.19
2022-12-26T11:46:58.412Z,100536.16
2022-12-26T11:49:32.881Z,100544.63
2022-12-26T11:52:01.115Z,100546.81
2022-12-26T11:54:35.411Z,100547.16
2022-12-26T11:57:16.257Z,100549.66
2022-12-26T11:59:44.692Z,100555.81
2022-12-26T12:02:33.742Z,100553.13
2022-12-26T12:05:14.433Z,100555.28
2022-12-26T12:08:00.753Z,100553.97
2022-12-26T12:11:00.806Z,100561.59
2022-12-26T12:13:40.192Z,100558.63
2022-12-26T12:16:26.016Z,100557.91
2022-12-26T12:19:00.784Z,100554.88
2022-12-26T12:21:42.381Z,100550.63
2022-12-26T12:24:34.678Z,100534.94
2022-12-26T12:27:11.019Z,100543.78
2022-12-26T12:29:58.893Z,100537.94
2022-12-26T12:32:34.264Z,100537.81
2022-12-26T12:35:23.557Z,100535.66
2022-12-26T12:38:14.821Z,100543.31
2022-12-26T12:40:53.247Z,100539.97
2022-12-26T12:43:29.666Z,100520.09
2022-12-26T12:46:07.261Z,100527.28
2022-12-26T12:48:48.560Z,100525.25
2022-12-26T12:51:24.518Z,100517.88
2022-12-26T12:54:12.510Z,100526.56
2022-12-26T12:56:49.819Z,100525.88
2022-12-26T12:59:31.602Z,100527.09
2022-12-26T13:02:09.662Z,100527.41
2022-12-26T13:04:43.114Z,100527.28
2022-12-26T13:07:18.435Z,100537.34
2022-12-26T13:09:52.256Z,100535.66
2022-12-26T13:12:23.279Z,100534.97
2022-12-26T13:14:56.734Z,100533.28
2022-12-26T13:17:29.767Z,100533.16
2022-12-26T13:20:03.026Z,100528.00
2022-12-26T13:22:55.319Z,100532.06
2022-12-26T13:25:27.315Z,100525.38
2022-12-26T13:28:09.420Z,100518.56
2022-12-26T13:30:38.863Z,100526.38
2022-12-26T13:33:07.530Z,100534.59
2022-12-26T13:35:53.413Z,100531.91
2022-12-26T13:38:22.405Z,100535.09
2022-12-26T13:41:17.665Z,100533.41
2022-12-26T13:44:00.390Z,100535.69
2022-12-26T13:46:55.466Z,100537.03
2022-12-26T13:49:36.202Z,100544.47
2022-12-26T13:52:26.304Z,100527.59
2022-12-26T13:55:21.502Z,100530.44
2022-12-26T13:58:14.176Z,100539.47
2022-12-26T14:00:47.081Z,100537.00
2022-12-26T14:03:32.187Z,100545.81
2022-12-26T14:06:27.968Z,100544.97
2022-12-26T14:09:20.583Z,100553.38
2022-12-26T14:12:06.701Z,100555.97
2022-12-26T14:14:54.203Z,100558.25
2022-12-26T14:17:34.318Z,100560.88
2022-12-26T14:20:15.479Z,100557.78
2022-12-26T14:22:55.417Z,100559.28
2022-12-26T14:25:27.790Z,100563.25
2022-12-26T14:28:03.457Z,100580.19
2022-12-26T14:30:38.666Z,100576.13
2022-12-26T14:33:25.653Z,100566.78
2022-12-26T14:36:03.626Z,100567.84
2022-12-26T14:38:43.567Z,100565.94
2022-12-26T14:41:30.423Z,100568.53
2022-12-26T14:44:09.909Z,100567.47
2022-12-26T14:47:02.281Z,100571.16
2022-12-26T14:49:48.291Z,100561.91
2022-12-26T14:52:41.228Z,100565.03
2022-12-26T14:55:47.769Z,100569.72
2022-12-26T14:58:38.104Z,100571.13
2022-12-26T15:01:47.662Z,100563.16
2022-12-26T15:04:54.935Z,100563.00
2022-12-26T15:07:59.080Z,100557.19
2022-12-26T15:11:09.036Z,100565.91
2022-12-26T15:14:32.453Z,100560.72
2022-12-26T15:17:11.565Z,100570.22
2022-12-26T15:20:15.668Z,100571.00
2022-12-26T15:23:16.823Z,100570.50
2022-12-26T15:26:10.453Z,100565.75
2022-12-26T15:29:14.568Z,100557.41
2022-12-26T15:31:58.140Z,100559.56
2022-12-26T15:34:37.786Z,100551.88
2022-12-26T15:37:15.789Z,100546.16
2022-12-26T15:39:53.429Z,100552.69
2022-12-26T15:42:38.136Z,100550.97
2022-12-26T15:45:28.906Z,100541.16
2022-12-26T15:48:15.434Z,100549.50
2022-12-26T15:50:58.423Z,100542.91
2022-12-26T15:53:41.395Z,100547.81
2022-12-26T15:56:26.980Z,100541.16
2022-12-26T15:59:12.771Z,100542.41
2022-12-26T16:01:42.932Z,100540.56
2022-12-26T16:04:19.068Z,100549.53
2022-12-26T16:07:09.676Z,100548.53
2022-12-26T16:09:45.373Z,100546.44
2022-12-26T16:12:27.413Z,100542.00
2022-12-26T16:15:14.417Z,100552.22
2022-12-26T16:17:43.526Z,100554.31
2022-12-26T16:20:37.299Z,100555.28
2022-12-26T16:23:05.648Z,100557.09
2022-12-26T16:25:37.779Z,100561.94
2022-12-26T16:28:08.040Z,100560.88
2022-12-26T16:30:38.397Z,100561.88
2022-12-26T16:33:07.150Z,100564.84
2022-12-26T16:35:38.696Z,100562.50
2022-12-26T16:38:12.204Z,100566.91
2022-12-26T16:40:44.826Z,100559.75
2022-12-26T16:43:27.650Z,100557.66
2022-12-26T16:45:58.636Z,100564.63
2022-12-26T16:48:29.274Z,100570.00
2022-12-26T16:50:59.328Z,100572.41
2022-12-26T16:53:44.147Z,100569.78
2022-12-26T16:56:21.210Z,100577.66
2022-12-26T16:58:53.752Z,100570.84
2022-12-26T17:01:23.697Z,100582.53
2022-12-26T17:03:56.196Z,100585.72
2022-12-26T17:06:27.456Z,100593.66
2022-12-26T17:08:57.090Z,100600.28
2022-12-26T17:11:31.465Z,100600.41
2022-12-26T17:14:01.890Z,100600.69
2022-12-26T17:16:31.557Z,100598.28
2022-12-26T17:19:13.442Z,100603.66
2022-12-26T17:21:41.332Z,100610.19
2022-12-26T17:24:23.330Z,100604.81
2022-12-26T17:26:54.143Z,100613.09
2022-12-26T17:29:51.781Z,100604.91
2022-12-26T17:32:40.892Z,100617.13
2022-12-26T17:35:14.118Z,100619.66
2022-12-26T17:37:42.827Z,100615.34
2022-12-26T17:40:23.571Z,100625.94
2022-12-26T17:42:53.507Z,100619.88
2022-12-26T17:45:23.410Z,100630.44
2022-12-26T17:47:53.953Z,100623.41
2022-12-26T17:50:23.218Z,100628.66
2022-12-26T17:52:51.873Z,100630.13
2022-12-26T17:55:25.157Z,100637.81
2022-12-26T17:57:53.952Z,100629.53
2022-12-26T18:00:24.541Z,100652.53
2022-12-26T18:02:54.522Z,100649.28
2022-12-26T18:05:22.677Z,100651.63
2022-12-26T18:07:52.854Z,100658.69
2022-12-26T18:10:22.367Z,100660.56
2022-12-26T18:12:50.938Z,100654.69
2022-12-26T18:15:20.301Z,100657.31
2022-12-26T18:17:50.075Z,100658.06
2022-12-26T18:20:21.518Z,100656.13
2022-12-26T18:22:49.516Z,100663.72
2022-12-26T18:25:18.839Z,100672.53
2022-12-26T18:27:47.073Z,100681.16
2022-12-26T18:30:17.465Z,100668.25
2022-12-26T18:32:46.715Z,100675.84
2022-12-26T18:35:15.419Z,100668.59
2022-12-26T18:37:49.927Z,100663.13
2022-12-26T18:40:25.116Z,100661.22
2022-12-26T18:42:52.936Z,100669.41
2022-12-26T18:45:20.961Z,100684.53
2022-12-26T18:47:48.887Z,100671.84
2022-12-26T18:50:17.774Z,100689.41
2022-12-26T18:52:53.149Z,100690.66
2022-12-26T18:55:22.091Z,100695.44
2022-12-26T18:57:50.653Z,100688.84
2022-12-26T19:00:20.197Z,100698.63
2022-12-26T19:02:49.653Z,100713.69
2022-12-26T19:05:21.252Z,100720.84
2022-12-26T19:07:51.042Z,100701.72
2022-12-26T19:10:26.550Z,100705.16
2022-12-26T19:12:59.766Z,100715.81
2022-12-26T19:15:31.731Z,100722.56
2022-12-26T19:17:59.610Z,100725.03
2022-12-26T19:20:28.359Z,100721.59
2022-12-26T19:22:57.740Z,100727.78
2022-12-26T19:25:26.763Z,100748.69
2022-12-26T19:27:55.153Z,100761.78
2022-12-26T19:30:24.025Z,100771.31
2022-12-26T19:32:52.123Z,100760.88
2022-12-26T19:35:20.194Z,100755.50
2022-12-26T19:37:51.269Z,100765.63
2022-12-26T19:40:24.899Z,100769.91
2022-12-26T19:42:53.793Z,100774.44
2022-12-26T19:45:22.296Z,100779.31
2022-12-26T19:47:50.753Z,100784.16
2022-12-26T19:50:19.519Z,100808.84
2022-12-26T19:52:47.794Z,100808.28
2022-12-26T19:55:15.913Z,100814.56
2022-12-26T19:57:47.147Z,100814.66
2022-12-26T20:00:15.921Z,100819.41
2022-12-26T20:02:44.457Z,100817.06
2022-12-26T20:05:13.360Z,100820.53
2022-12-26T20:07:41.567Z,100812.38
2022-12-26T20:10:10.132Z,100821.06
2022-12-26T20:12:38.641Z,100824.53
2022-12-26T20:15:09.116Z,100832.00
2022-12-26T20:17:37.752Z,100841.16
2022-12-26T20:20:07.166Z,100852.91
2022-12-26T20:22:35.646Z,100852.75
2022-12-26T20:25:04.218Z,100859.06
2022-12-26T20:27:33.092Z,100866.22
2022-12-26T20:30:01.434Z,100865.91
2022-12-26T20:32:31.788Z,100862.84
2022-12-26T20:35:00.036Z,100861.53
2022-12-26T20:37:28.405Z,100872.44
2022-12-26T20:39:59.221Z,100856.06
2022-12-26T20:42:27.670Z,100869.81
2022-12-26T20:44:55.870Z,100857.19
2022-12-26T20:47:24.162Z,100867.75
2022-12-26T20:49:54.124Z,100878.16
2022-12-26T20:52:22.347Z,100887.91
2022-12-26T20:54:50.260Z,100892.63
2022-12-26T20:57:18.228Z,100889.25
2022-12-26T20:59:46.119Z,100890.94
2022-12-26T21:02:14.244Z,100900.84
2022-12-26T21:04:42.571Z,100891.88
2022-12-26T21:07:11.971Z,100902.53
2022-12-26T21:09:45.918Z,100897.72
2022-12-26T21:12:14.192Z,100905.38
2022-12-26T21:14:43.241Z,100913.75
2022-12-26T21:17:11.453Z,100920.81
2022-12-26T21:19:39.660Z,100942.09
2022-12-26T21:22:08.095Z,100944.94
2022-12-26T21:24:37.782Z,100941.13
2022-12-26T21:27:05.746Z,100938.72
2022-12-26T21:29:35.490Z,100951.09
2022-12-26T21:32:04.809Z,100948.50
2022-12-26T21:34:34.648Z,100950.47
2022-12-26T21:37:21.105Z,100951.97
2022-12-26T21:39:50.563Z,100966.75
2022-12-26T21:42:18.712Z,100961.50
2022-12-26T21:44:46.855Z,100959.91
2022-12-26T21:47:15.320Z,100974.75
2022-12-26T21:49:43.652Z,100979.28
2022-12-26T21:52:12.092Z,100982.56
2022-12-26T21:54:57.780Z,100988.88
2022-12-26T21:57:27.625Z,100998.88
2022-12-26T21:59:58.989Z,100999.25
2022-12-26T22:02:47.807Z,101001.03
2022-12-26T22:05:16.796Z,101024.63
2022-12-26T22:07:56.399Z,101022.78
2022-12-26T22:10:43.251Z,101025.94
2022-12-26T22:13:13.071Z,101015.22
2022-12-26T22:16:03.142Z,101016.34
2022-12-26T22:18:32.823Z,101026.81
2022-12-26T22:21:06.573Z,101036.00
2022-12-26T22:23:35.043Z,101031.16
2022-12-26T22:26:03.639Z,101048.44
2022-12-26T22:28:33.515Z,101052.75
2022-12-26T22:31:02.343Z,101070.03
2022-12-26T22:33:30.854Z,101069.34
2022-12-26T22:36:05.538Z,101074.28
2022-12-26T22:38:33.618Z,101081.94
2022-12-26T22:41:02.019Z,101075.78
2022-12-26T22:43:30.788Z,101085.31
2022-12-26T22:46:00.454Z,101098.38
2022-12-26T22:48:28.777Z,101098.16
2022-12-26T22:50:57.258Z,101093.38
2022-12-26T22:53:27.105Z,101112.28
2022-12-26T22:55:59.009Z,101105.41
2022-12-26T22:58:27.354Z,101105.66
2022-12-26T23:00:55.237Z,101113.84
2022-12-26T23:03:25.059Z,101113.56
2022-12-26T23:05:54.176Z,101120.25
2022-12-26T23:08:24.617Z,101116.41
2022-12-26T23:10:53.987Z,101126.06
2022-12-26T23:13:22.295Z,101134.31
2022-12-26T23:15:57.027Z,101134.25
2022-12-26T23:18:53.273Z,101134.38
2022-12-26T23:21:42.998Z,101133.47
2022-12-26T23:24:15.025Z,101129.78
2022-12-26T23:26:46.626Z,101134.78
2022-12-26T23:29:33.988Z,101136.28
2022-12-26T23:32:02.204Z,101131.84
2022-12-26T23:34:31.505Z,101130.94
2022-12-26T23:36:59.520Z,101140.81
2022-12-26T23:39:27.591Z,101125.16
2022-12-26T23:41:55.589Z,101142.69
2022-12-26T23:44:23.599Z,101133.00
2022-12-26T23:46:51.571Z,101131.81
2022-12-26T23:49:22.465Z,101137.38
2022-12-26T23:51:54.866Z,101132.78
2022-12-26T23:54:22.861Z,101135.81
2022-12-26T23:56:50.872Z,101139.00
2022-12-26T23:59:18.883Z,101145.44
